Detalii statie TRANSAVIA REDIU [0000197C]

Toti senzorii

Date Temperatura solului [C]Precipitatii [mm]Voltaj baterie [mV]Leaf Wetness [Min]HC Air temperature [C]HC Relative humidity [%]Punctul de roua [C]
medieminmaxsumaultimatimpmedieminmaxmediemediemin
2017-12-10 22:00:00 0.2 0.2 0.3 0 6562 -4.5 -4.75 -4.22 100 -4.3 -4.6
2017-12-10 23:00:00 0.1 0.1 0.3 0 6542 -4.26 -4.79 -3.72 100 -4.1 -4.6
2017-12-11 00:00:00 0.1 0 0.2 0 6532 -3.33 -4.02 -2.72 100 -3.2 -3.9
2017-12-11 01:00:00 0.1 0 0.3 0 6522 -3.5 -4.03 -2.83 100 -3.3 -3.9
2017-12-11 02:00:00 0 0 0.1 0 6522 -2.95 -4.06 -1.52 100 -2.8 -3.9
2017-12-11 03:00:00 0 0 0.1 0 6512 -1.26 -3.45 -0.38 100 -1.1 -3.3
2017-12-11 04:00:00 0 -0.2 0.1 0 6502 -3.06 -3.94 -2.5 100 -2.9 -3.8
2017-12-11 05:00:00 0 -0.1 0.1 0 6502 -2.22 -2.59 -1.67 100 -2 -2.4
2017-12-11 06:00:00 0 0 0.1 0 6494 -1.67 -1.95 -1.56 100 -1.5 -1.8
2017-12-11 07:00:00 0 -0.1 0.2 0 6502 -1.79 -2 -1.58 100 -1.6 -1.9
2017-12-11 08:00:00 0 0 0.1 0 6502 -1.39 -1.7 -1.01 100 -1.2 -1.6
2017-12-11 09:00:00 0 -0.1 0.1 0 6502 -2.33 -3.05 -1.15 100 -2.1 -2.9
2017-12-11 10:00:00 0 -0.1 0.1 0 6512 -2.84 -2.99 -2.66 100 -2.6 -2.8
2017-12-11 11:00:00 0 0 0 0 6572 -2.09 -2.51 -1.78 100 -1.9 -2.4
2017-12-11 12:00:00 0 0 0.1 0 6650 -1.21 -1.74 -0.86 100 -1 -1.6
2017-12-11 13:00:00 0 -0.1 0.1 0 6698 0.12 -0.69 1.85 100 0.2 -0.5
2017-12-11 14:00:00 0 -0.1 0.2 0 6678 4.61 2.18 6.53 100 4.5 2.1
2017-12-11 15:00:00 0.1 0 0.2 0 6786 7.35 6.7 8.08 100 7.3 6.7
2017-12-11 16:00:00 0.1 0 0.2 0 6718 8.1 7.81 8.45 100 8 7.8
2017-12-11 17:00:00 0.2 0.1 0.3 0 6640 7.51 6.46 7.98 100 7.4 6.4
2017-12-11 18:00:00 0.2 0.2 0.3 0 6610 4.44 2.78 6.84 100 4.4 2.7
2017-12-11 19:00:00 0.2 0.2 0.3 0 6590 5.23 2.96 6.39 100 5.1 2.9
2017-12-11 20:00:00 0.4 0.3 0.5 0 6572 5.45 4.48 6.96 100 5.4 4.4
2017-12-11 21:00:00 0.3 0.3 0.5 0 6562 3.01 1.9 5.01 100 2.9 1.9
2017-12-11 22:00:00 0.4 0.3 0.5 0 6552 1.87 1.51 2.44 100 1.8 1.5
2017-12-11 23:00:00 0.4 0.3 0.5 0 6532 1.73 1.52 1.95 100 1.7 1.5
2017-12-12 00:00:00 0.4 0.3 0.6 0 6532 2.1 1.9 2.41 100 2 1.9
2017-12-12 01:00:00 0.4 0.4 0.6 0 6512 2.55 2.23 3 100 2.5 2.2
2017-12-12 02:00:00 0.5 0.4 0.6 0 6512 2.2 2.01 2.51 100 2.1 2
2017-12-12 03:00:00 0.5 0.5 0.6 0 6502 2.29 1.89 2.64 100 2.2 1.8
2017-12-12 04:00:00 0.4 0.3 0.6 0 6502 2.98 2.64 3.38 100 2.9 2.6
2017-12-12 05:00:00 0.5 0.5 0.6 0 6502 3.33 2.66 3.94 100 3.2 2.6
2017-12-12 06:00:00 0.5 0.5 0.6 0 6512 3.59 2.65 4.53 100 3.5 2.6
2017-12-12 07:00:00 0.5 0.4 0.6 0 6502 4.48 4.01 5 100 4.4 4
2017-12-12 08:00:00 0.5 0.4 0.7 0 6502 4.68 3.52 5.41 100 4.6 3.5
2017-12-12 09:00:00 0.6 0.5 0.7 0 6512 4.94 4.39 5.33 100 4.8 4.3
2017-12-12 10:00:00 0.6 0.6 0.8 0 6572 5.91 4.82 6.38 100 5.8 4.8
2017-12-12 11:00:00 0.8 0.7 0.9 0 6600 5.75 5.5 5.97 100 5.7 5.5
2017-12-12 12:00:00 0.8 0.8 1 0 6650 6.58 6.05 7.14 100 6.5 6
2017-12-12 13:00:00 1.1 1 1.3 0 6678 8.1 7.15 9.24 100 8 7.1
2017-12-12 14:00:00 1.5 1.3 1.7 0 6668 10.41 9.5 11.75 100 10.3 9.5
2017-12-12 15:00:00 1.7 1.6 2 0 6748 11.71 10.96 12.4 100 11.6 10.9
2017-12-12 16:00:00 1.9 1.9 2.1 0 6698 10.78 9.3 11.49 100 10.7 9.3
2017-12-12 17:00:00 2.1 2.1 2.3 0 6640 6.56 5.21 8.62 100 6.5 5.2
2017-12-12 18:00:00 2 1.9 2.3 0 6610 4.67 3.95 5.35 100 4.6 3.9
2017-12-12 19:00:00 2 1.9 2.1 0 6590 4.46 3.61 6.14 100 4.4 3.6
2017-12-12 20:00:00 1.9 1.7 2.1 0 6582 4.02 3.24 4.68 100 3.9 3.2
2017-12-12 21:00:00 1.8 1.7 1.9 0 6572 3.23 2.66 3.6 100 3.2 2.6